Time;durP1;ratioP1;P1;durP2;ratioP2;P2;SDS_P1;SDS_P2;PMS_P1;PMS_P2;Temp;Humidity;BMP_temperature;BMP_pressure;BME280_temperature;BME280_humidity;BME280_pressure;Samples;Min_cycle;Max_cycle;Signal;HPM_P1;HPM_P2
2022/06/11 00:01:53;;;;;;;8.32;3.90;;;18.10;90.20;;;;;;5012171;28;20030;-80
2022/06/11 00:04:23;;;;;;;6.82;3.95;;;18.10;90.20;;;;;;5014512;28;20091;-80
2022/06/11 00:06:52;;;;;;;7.57;4.13;;;18.00;90.10;;;;;;5027776;28;20072;-80
2022/06/11 00:09:20;;;;;;;10.20;3.50;;;18.00;90.30;;;;;;5014957;28;20475;-82
2022/06/11 00:11:47;;;;;;;6.03;3.67;;;18.00;90.50;;;;;;5011337;28;20037;-81
2022/06/11 00:14:14;;;;;;;8.15;3.17;;;18.00;90.50;;;;;;5012481;28;20077;-80
2022/06/11 00:16:42;;;;;;;6.80;3.40;;;17.90;90.50;;;;;;5023185;28;20570;-81
2022/06/11 00:19:07;;;;;;;7.75;4.07;;;17.90;90.60;;;;;;5009600;28;20557;-81
2022/06/11 00:21:36;;;;;;;6.93;4.38;;;17.90;90.80;;;;;;5012309;28;20114;-80
2022/06/11 00:24:03;;;;;;;6.78;4.25;;;17.90;91.10;;;;;;5010083;28;20029;-80
2022/06/11 00:26:29;;;;;;;6.30;3.63;;;17.80;91.10;;;;;;5009622;28;20140;-80
2022/06/11 00:28:54;;;;;;;8.13;4.00;;;17.80;91.30;;;;;;5012398;28;20034;-80
2022/06/11 00:31:20;;;;;;;7.95;4.10;;;17.70;91.40;;;;;;5024736;28;20572;-80
2022/06/11 00:33:46;;;;;;;5.70;3.97;;;17.70;91.60;;;;;;5012589;28;20029;-80
2022/06/11 00:36:12;;;;;;;9.23;4.43;;;17.70;91.70;;;;;;5010704;28;20051;-80
2022/06/11 00:38:39;;;;;;;6.38;3.67;;;17.70;91.90;;;;;;5010580;28;20034;-80
2022/06/11 00:41:06;;;;;;;8.40;4.32;;;17.60;92.00;;;;;;5012024;28;20034;-80
2022/06/11 00:43:32;;;;;;;6.50;4.82;;;17.60;92.10;;;;;;5011089;28;20577;-80
2022/06/11 00:46:39;;;;;;;9.23;5.07;;;17.60;92.30;;;;;;5009443;28;20038;-80
2022/06/11 00:49:15;;;;;;;6.80;4.70;;;17.50;92.40;;;;;;5010972;28;20501;-80
2022/06/11 00:51:41;;;;;;;6.93;4.93;;;17.50;92.60;;;;;;5012169;28;20041;-80
2022/06/11 00:54:14;;;;;;;7.65;4.93;;;17.50;92.80;;;;;;5013607;28;20034;-80
2022/06/11 00:56:52;;;;;;;9.48;5.28;;;17.40;92.80;;;;;;5022197;28;20033;-80
2022/06/11 00:59:29;;;;;;;12.48;5.65;;;17.40;93.00;;;;;;5026954;28;20438;-80
2022/06/11 01:01:55;;;;;;;8.27;5.25;;;17.40;93.10;;;;;;5010846;28;20471;-80
2022/06/11 01:04:37;;;;;;;8.60;5.07;;;17.40;93.20;;;;;;5010079;28;20030;-81
2022/06/11 01:07:17;;;;;;;8.02;5.80;;;17.30;93.30;;;;;;5010541;28;20386;-80
2022/06/11 01:09:50;;;;;;;8.40;4.85;;;17.30;93.40;;;;;;5006666;28;20026;-80
2022/06/11 01:12:28;;;;;;;7.78;4.78;;;17.30;93.60;;;;;;5004354;28;20022;-80
2022/06/11 01:15:07;;;;;;;10.27;5.38;;;17.30;93.60;;;;;;5011208;28;20104;-80
2022/06/11 01:17:54;;;;;;;17.20;5.85;;;17.30;93.70;;;;;;5011249;28;20038;-80
2022/06/11 01:20:44;;;;;;;8.20;5.57;;;17.30;93.80;;;;;;5010595;28;20065;-80
2022/06/11 01:23:26;;;;;;;9.15;4.82;;;17.30;93.90;;;;;;5007843;28;20033;-80
2022/06/11 01:26:28;;;;;;;7.90;4.80;;;17.20;93.90;;;;;;5024567;28;20394;-80
2022/06/11 01:29:12;;;;;;;7.53;5.00;;;17.20;94.00;;;;;;5010212;28;20026;-80
2022/06/11 01:31:51;;;;;;;9.02;4.90;;;17.20;94.10;;;;;;5010561;28;20284;-80
2022/06/11 01:34:41;;;;;;;7.32;4.45;;;17.20;94.20;;;;;;5010343;28;20098;-80
2022/06/11 01:37:17;;;;;;;9.90;5.10;;;17.20;94.30;;;;;;5008971;28;20066;-80
2022/06/11 01:39:53;;;;;;;4.85;3.63;;;17.20;94.40;;;;;;5010881;28;20033;-80
2022/06/11 01:42:27;;;;;;;6.93;4.18;;;17.10;94.40;;;;;;5009947;28;20036;-80
2022/06/11 01:45:07;;;;;;;8.27;4.25;;;17.20;94.50;;;;;;5009847;28;20026;-80
2022/06/11 01:47:35;;;;;;;9.10;4.20;;;17.10;94.60;;;;;;5008754;28;20119;-80
2022/06/11 01:50:01;;;;;;;7.75;4.63;;;17.10;94.60;;;;;;5010825;28;20026;-81
2022/06/11 01:53:04;;;;;;;7.65;4.65;;;17.10;94.60;;;;;;5010868;28;20084;-80
2022/06/11 01:56:02;;;;;;;4.97;3.63;;;17.10;94.80;;;;;;5010514;28;20033;-80
2022/06/11 01:58:39;;;;;;;6.38;4.20;;;17.10;94.80;;;;;;5010049;28;20133;-80
2022/06/11 02:01:37;;;;;;;5.38;3.75;;;17.10;95.10;;;;;;5010270;28;20038;-80
2022/06/11 02:04:18;;;;;;;7.20;4.07;;;17.00;95.00;;;;;;5010302;28;20037;-80
2022/06/11 02:06:44;;;;;;;5.13;3.90;;;17.00;95.10;;;;;;5013017;28;20060;-80
2022/06/11 02:09:19;;;;;;;7.68;3.67;;;17.00;95.10;;;;;;5016489;28;20128;-80
2022/06/11 02:11:49;;;;;;;7.55;3.88;;;17.00;95.20;;;;;;5010194;28;20026;-80
2022/06/11 02:14:21;;;;;;;6.35;4.57;;;16.90;95.30;;;;;;5011087;28;20076;-80
2022/06/11 02:17:11;;;;;;;8.63;4.63;;;16.90;95.40;;;;;;5010376;28;20467;-80
2022/06/11 02:19:45;;;;;;;7.75;3.80;;;16.90;95.50;;;;;;5005452;28;20050;-80
2022/06/11 02:22:25;;;;;;;4.80;3.75;;;16.90;95.60;;;;;;5010586;28;20498;-80
2022/06/11 02:25:07;;;;;;;6.93;4.60;;;16.80;95.90;;;;;;5010143;28;20034;-80
2022/06/11 02:27:35;;;;;;;5.88;3.63;;;16.80;95.80;;;;;;5007289;28;20029;-80
2022/06/11 02:30:05;;;;;;;5.30;4.32;;;16.70;96.00;;;;;;5010189;28;20110;-80
2022/06/11 02:32:32;;;;;;;6.18;4.22;;;16.70;96.00;;;;;;5010664;28;20065;-80
2022/06/11 02:35:02;;;;;;;5.60;3.95;;;16.70;96.00;;;;;;5011482;28;20396;-80
2022/06/11 02:37:35;;;;;;;5.63;4.13;;;16.60;96.10;;;;;;5008506;28;20204;-80
2022/06/11 02:40:16;;;;;;;7.38;4.15;;;16.60;96.10;;;;;;5015370;28;20125;-80
2022/06/11 02:42:42;;;;;;;5.45;4.35;;;16.60;96.20;;;;;;5020658;28;20033;-80
2022/06/11 02:45:12;;;;;;;9.77;5.15;;;16.50;96.30;;;;;;5013648;28;20034;-80
2022/06/11 02:47:42;;;;;;;7.72;5.07;;;16.50;96.40;;;;;;5011366;28;20025;-80
2022/06/11 02:50:09;;;;;;;5.60;4.18;;;16.50;96.40;;;;;;5010821;28;20159;-79
2022/06/11 02:52:35;;;;;;;6.53;4.60;;;16.50;96.50;;;;;;5010161;28;20033;-80
2022/06/11 02:55:02;;;;;;;5.13;4.03;;;16.50;96.60;;;;;;5010622;28;20394;-80
2022/06/11 02:57:33;;;;;;;7.00;3.95;;;16.50;96.70;;;;;;5008831;28;20265;-80
2022/06/11 02:59:59;;;;;;;8.77;4.03;;;16.40;96.70;;;;;;5006334;28;20038;-80
2022/06/11 03:02:25;;;;;;;6.70;4.35;;;16.40;96.70;;;;;;5008231;28;22007;-80
2022/06/11 03:04:51;;;;;;;6.55;4.72;;;16.40;96.80;;;;;;5008627;28;20025;-80
2022/06/11 03:07:17;;;;;;;10.02;4.35;;;16.40;96.80;;;;;;5007515;28;20029;-79
2022/06/11 03:09:43;;;;;;;7.15;4.32;;;16.40;96.90;;;;;;5009539;28;20113;-80
2022/06/11 03:12:11;;;;;;;6.20;4.50;;;16.40;96.90;;;;;;5023715;28;20164;-80
2022/06/11 03:14:37;;;;;;;4.05;3.65;;;16.40;96.80;;;;;;5020370;28;20410;-80
2022/06/11 03:17:04;;;;;;;5.40;4.07;;;16.40;96.80;;;;;;5009037;28;20037;-80
2022/06/11 03:19:31;;;;;;;6.00;4.15;;;16.40;96.80;;;;;;5009832;28;20038;-80
2022/06/11 03:21:56;;;;;;;6.25;4.18;;;16.40;96.80;;;;;;5006136;28;20798;-80
2022/06/11 03:24:24;;;;;;;6.93;3.88;;;16.40;96.80;;;;;;5008187;28;20037;-80
2022/06/11 03:26:50;;;;;;;6.35;4.18;;;16.40;96.80;;;;;;5009113;28;20512;-80
2022/06/11 03:29:16;;;;;;;5.80;4.00;;;16.40;96.80;;;;;;5009170;28;20034;-79
2022/06/11 03:31:47;;;;;;;6.43;4.38;;;16.40;97.10;;;;;;5006615;28;20095;-80
2022/06/11 03:34:13;;;;;;;5.63;3.95;;;16.40;96.80;;;;;;5008521;28;20076;-80
2022/06/11 03:36:40;;;;;;;7.50;4.20;;;16.40;96.80;;;;;;5008459;28;20042;-80
2022/06/11 03:39:06;;;;;;;7.22;4.45;;;16.50;96.90;;;;;;5019326;28;20124;-80
2022/06/11 03:41:31;;;;;;;3.95;3.45;;;16.50;96.90;;;;;;5008549;28;20137;-80
2022/06/11 03:43:57;;;;;;;6.68;3.47;;;16.50;96.90;;;;;;5007921;28;20026;-80
2022/06/11 03:46:23;;;;;;;7.15;4.00;;;16.50;96.80;;;;;;5020233;28;20475;-80
2022/06/11 03:48:51;;;;;;;5.15;3.78;;;16.60;96.90;;;;;;5008935;28;20030;-80
2022/06/11 03:51:17;;;;;;;11.38;4.40;;;16.60;96.90;;;;;;5008703;28;20038;-80
2022/06/11 03:53:45;;;;;;;8.82;4.78;;;16.70;96.90;;;;;;5007112;28;20057;-80
2022/06/11 03:56:11;;;;;;;7.30;3.58;;;16.70;96.80;;;;;;5007585;28;20037;-80
2022/06/11 03:58:38;;;;;;;5.47;4.10;;;16.80;96.90;;;;;;5005278;28;20372;-80
2022/06/11 04:01:16;;;;;;;4.78;3.42;;;16.90;96.90;;;;;;5008661;28;20030;-80
2022/06/11 04:03:45;;;;;;;6.10;3.90;;;17.00;96.90;;;;;;5002013;28;20118;-80
2022/06/11 04:06:11;;;;;;;5.38;3.78;;;17.10;96.90;;;;;;5007556;28;20033;-80
2022/06/11 04:08:38;;;;;;;6.10;3.17;;;17.20;96.90;;;;;;5006363;28;20022;-80
2022/06/11 04:11:04;;;;;;;9.13;3.88;;;17.30;96.70;;;;;;5009030;28;20474;-79
2022/06/11 04:13:32;;;;;;;7.07;3.22;;;17.40;96.70;;;;;;5011513;28;20502;-80
2022/06/11 04:16:00;;;;;;;7.65;3.38;;;17.50;96.50;;;;;;5011397;28;20038;-80
2022/06/11 04:18:36;;;;;;;6.32;2.55;;;17.60;96.40;;;;;;5011795;28;20055;-80
2022/06/11 04:21:05;;;;;;;5.32;2.80;;;17.70;96.10;;;;;;5023216;28;20863;-80
2022/06/11 04:23:31;;;;;;;4.65;2.20;;;17.80;96.00;;;;;;5012460;28;20426;-80
2022/06/11 04:26:00;;;;;;;5.25;2.70;;;17.90;95.80;;;;;;5012294;28;20038;-80
2022/06/11 04:28:28;;;;;;;4.15;2.42;;;18.10;95.50;;;;;;5011135;28;20030;-80
2022/06/11 04:30:55;;;;;;;12.40;2.40;;;18.10;95.30;;;;;;5011446;28;20450;-80
2022/06/11 04:33:20;;;;;;;4.60;2.15;;;18.30;95.10;;;;;;5012171;28;20034;-80
2022/06/11 04:35:46;;;;;;;4.45;2.03;;;18.40;94.90;;;;;;5026521;28;20071;-80
2022/06/11 04:38:12;;;;;;;4.60;1.95;;;18.50;94.90;;;;;;5012219;28;20042;-80
2022/06/11 04:40:39;;;;;;;5.60;2.63;;;18.50;94.80;;;;;;5027855;28;20103;-80
2022/06/11 04:43:04;;;;;;;4.53;2.10;;;18.60;94.50;;;;;;5011780;28;20049;-80
2022/06/11 04:45:30;;;;;;;6.78;2.45;;;18.70;94.30;;;;;;5009390;28;20025;-80
2022/06/11 04:47:55;;;;;;;4.57;2.20;;;18.80;94.20;;;;;;5012552;28;20037;-80
2022/06/11 04:50:22;;;;;;;6.07;2.60;;;18.80;94.00;;;;;;5012645;28;20026;-80
2022/06/11 04:52:47;;;;;;;6.63;2.60;;;18.80;93.90;;;;;;5012018;28;20173;-80
2022/06/11 04:55:14;;;;;;;3.53;2.33;;;18.90;93.70;;;;;;5014910;28;20140;-80
2022/06/11 04:57:41;;;;;;;5.38;2.72;;;18.90;93.70;;;;;;5011729;28;20462;-81
2022/06/11 05:00:08;;;;;;;3.35;2.30;;;18.90;93.80;;;;;;5011508;28;20060;-81
2022/06/11 05:02:34;;;;;;;4.00;2.33;;;18.90;93.60;;;;;;5008830;28;20044;-81
2022/06/11 05:04:59;;;;;;;7.15;2.50;;;18.90;93.50;;;;;;5009974;28;20057;-81
2022/06/11 05:07:25;;;;;;;3.20;1.98;;;18.90;93.50;;;;;;5017460;28;20053;-81
2022/06/11 05:09:50;;;;;;;6.15;2.15;;;18.90;93.40;;;;;;5011760;28;20037;-81
2022/06/11 05:12:16;;;;;;;6.70;2.33;;;19.00;93.30;;;;;;5014032;28;20632;-81
2022/06/11 05:14:41;;;;;;;5.30;2.05;;;18.90;93.10;;;;;;5011151;28;20445;-81
2022/06/11 05:17:07;;;;;;;6.07;2.03;;;19.00;92.90;;;;;;5010440;28;20479;-81
2022/06/11 05:19:33;;;;;;;6.97;2.42;;;18.90;92.90;;;;;;5011503;28;20404;-80
2022/06/11 05:21:59;;;;;;;5.80;1.83;;;19.00;92.90;;;;;;5011191;28;20486;-81
2022/06/11 05:24:25;;;;;;;9.85;2.35;;;19.00;93.00;;;;;;5009932;28;20030;-81
2022/06/11 05:26:58;;;;;;;6.35;2.08;;;19.00;92.80;;;;;;5011996;28;20079;-81
2022/06/11 05:29:31;;;;;;;5.45;2.33;;;19.00;92.90;;;;;;5010985;28;20088;-81
2022/06/11 05:31:57;;;;;;;2.20;1.90;;;19.10;92.80;;;;;;5007832;28;20037;-81
2022/06/11 05:34:23;;;;;;;5.22;1.98;;;19.10;92.70;;;;;;5011078;28;20042;-81
2022/06/11 05:36:48;;;;;;;5.10;2.10;;;19.10;92.70;;;;;;5025851;28;20592;-81
2022/06/11 05:39:14;;;;;;;6.55;2.10;;;19.10;92.90;;;;;;5026784;28;20034;-81
2022/06/11 05:41:40;;;;;;;3.42;2.20;;;19.20;92.80;;;;;;5007702;28;20029;-81
2022/06/11 05:44:06;;;;;;;5.20;2.00;;;19.20;92.80;;;;;;5004285;28;20030;-81
2022/06/11 05:46:32;;;;;;;4.13;1.70;;;19.20;92.80;;;;;;5009512;28;20100;-81
2022/06/11 05:49:01;;;;;;;3.47;1.85;;;19.30;92.60;;;;;;5009746;28;20406;-81
2022/06/11 05:51:33;;;;;;;10.13;2.20;;;19.40;92.40;;;;;;5010072;28;20037;-81
2022/06/11 05:54:03;;;;;;;2.58;1.55;;;19.40;92.20;;;;;;5014941;28;20483;-81
2022/06/11 05:56:28;;;;;;;3.20;2.00;;;19.50;92.20;;;;;;5009409;28;20494;-81
2022/06/11 05:59:02;;;;;;;6.20;1.55;;;19.60;92.10;;;;;;5007957;28;20030;-81
2022/06/11 06:01:32;;;;;;;4.28;1.70;;;19.70;92.00;;;;;;5009953;28;20120;-81
2022/06/11 06:03:57;;;;;;;4.85;1.60;;;19.80;91.50;;;;;;5004493;28;20514;-81
2022/06/11 06:06:23;;;;;;;2.70;1.30;;;19.90;91.40;;;;;;5007558;28;20037;-80
2022/06/11 06:08:48;;;;;;;4.43;1.80;;;19.90;90.80;;;;;;5011073;28;20042;-81
2022/06/11 06:11:14;;;;;;;3.30;1.05;;;20.00;90.60;;;;;;5008731;28;20033;-81
2022/06/11 06:13:46;;;;;;;3.35;1.27;;;20.10;90.40;;;;;;5009278;28;20690;-81
2022/06/11 06:16:13;;;;;;;2.17;1.13;;;20.20;90.40;;;;;;5008868;28;20072;-81
2022/06/11 06:18:39;;;;;;;2.50;1.10;;;20.30;90.10;;;;;;5007651;28;20077;-81
2022/06/11 06:21:05;;;;;;;3.17;1.50;;;20.30;90.00;;;;;;5011570;28;20064;-81
2022/06/11 06:23:32;;;;;;;3.40;1.35;;;20.40;89.50;;;;;;5009331;28;20064;-81
2022/06/11 06:25:58;;;;;;;2.53;1.58;;;20.50;90.00;;;;;;5007719;28;20037;-81
2022/06/11 06:28:23;;;;;;;5.03;1.60;;;20.60;89.40;;;;;;5008959;28;20056;-81
2022/06/11 06:30:49;;;;;;;3.25;1.45;;;20.70;89.20;;;;;;5022234;28;20479;-81
2022/06/11 06:33:15;;;;;;;4.25;1.20;;;20.90;88.90;;;;;;5009324;28;20098;-81
2022/06/11 06:35:43;;;;;;;8.95;1.40;;;21.00;88.10;;;;;;5006336;28;20033;-82
2022/06/11 06:38:09;;;;;;;5.05;1.50;;;21.10;88.00;;;;;;5006854;28;20089;-77
2022/06/11 06:40:35;;;;;;;2.03;1.05;;;21.20;87.60;;;;;;5020750;28;20053;-77
2022/06/11 06:43:02;;;;;;;10.63;1.60;;;21.30;87.50;;;;;;5007641;28;20631;-77
2022/06/11 06:45:28;;;;;;;2.53;1.00;;;21.30;87.50;;;;;;5009133;28;20165;-77
2022/06/11 06:47:53;;;;;;;2.53;1.58;;;21.40;86.30;;;;;;5012682;28;20097;-77
2022/06/11 06:50:19;;;;;;;4.35;0.90;;;21.50;85.80;;;;;;5010280;28;20482;-79
2022/06/11 06:52:44;;;;;;;2.92;1.40;;;21.60;86.10;;;;;;5015498;28;20493;-78
2022/06/11 06:55:10;;;;;;;6.38;1.40;;;21.70;85.80;;;;;;5008769;28;20030;-78
2022/06/11 06:57:35;;;;;;;2.00;1.30;;;21.80;85.90;;;;;;5011438;28;20487;-77
2022/06/11 07:00:02;;;;;;;4.47;1.40;;;22.00;85.40;;;;;;5010527;28;20080;-79
2022/06/11 07:02:27;;;;;;;3.42;1.10;;;22.10;84.90;;;;;;5010482;28;20030;-77
2022/06/11 07:04:53;;;;;;;7.00;1.00;;;22.30;83.90;;;;;;5010268;28;20493;-75
2022/06/11 07:07:19;;;;;;;6.00;1.15;;;22.40;83.30;;;;;;5011033;28;20045;-78
2022/06/11 07:09:45;;;;;;;2.03;0.98;;;22.50;82.70;;;;;;5011075;28;20085;-78
2022/06/11 07:12:11;;;;;;;2.90;0.93;;;22.60;82.50;;;;;;5010428;28;20026;-77
2022/06/11 07:14:37;;;;;;;2.47;1.05;;;22.80;83.20;;;;;;5010753;28;20202;-76
2022/06/11 07:17:07;;;;;;;2.67;0.90;;;23.00;82.10;;;;;;5009818;28;20121;-78
2022/06/11 07:19:41;;;;;;;7.60;1.20;;;23.10;82.30;;;;;;5010602;28;20044;-77
2022/06/11 07:22:13;;;;;;;1.88;1.02;;;23.20;81.10;;;;;;5010954;28;20029;-81
2022/06/11 07:24:41;;;;;;;3.28;1.02;;;23.40;80.30;;;;;;5010554;28;20057;-76
2022/06/11 07:27:11;;;;;;;1.92;0.80;;;23.50;80.10;;;;;;5009823;28;20418;-76
2022/06/11 07:29:43;;;;;;;4.20;0.98;;;23.70;78.10;;;;;;5009607;28;20092;-77
2022/06/11 07:32:14;;;;;;;2.45;1.17;;;23.70;78.30;;;;;;5009422;28;20097;-78
2022/06/11 07:34:41;;;;;;;2.20;0.83;;;23.90;77.80;;;;;;5010374;28;20378;-78
2022/06/11 07:37:07;;;;;;;4.70;1.02;;;23.90;78.10;;;;;;5009675;28;20346;-79
2022/06/11 07:39:33;;;;;;;1.67;0.80;;;24.10;80.60;;;;;;5009819;28;20038;-77
2022/06/11 07:41:58;;;;;;;7.43;0.95;;;24.20;77.30;;;;;;5009868;28;20034;-77
2022/06/11 07:44:24;;;;;;;2.63;0.75;;;24.40;77.40;;;;;;5010182;28;20042;-77
2022/06/11 07:46:50;;;;;;;4.10;0.95;;;24.50;78.40;;;;;;5009547;28;20041;-77
2022/06/11 07:49:15;;;;;;;5.97;1.00;;;24.70;77.50;;;;;;5014160;28;20034;-77
2022/06/11 07:51:41;;;;;;;4.25;0.82;;;24.80;76.00;;;;;;5013024;28;20033;-77
2022/06/11 07:54:06;;;;;;;2.08;1.10;;;24.90;74.50;;;;;;5031380;28;20044;-78
2022/06/11 07:56:32;;;;;;;4.15;0.80;;;25.10;74.00;;;;;;5012336;28;20065;-76
2022/06/11 07:58:58;;;;;;;2.38;0.73;;;25.20;73.40;;;;;;5012005;28;20034;-78
2022/06/11 08:01:23;;;;;;;2.70;1.10;;;25.40;75.70;;;;;;5013522;28;20038;-78
2022/06/11 08:03:49;;;;;;;3.47;1.02;;;25.50;76.70;;;;;;5013719;28;20095;-77
2022/06/11 08:06:14;;;;;;;4.10;0.70;;;25.70;71.70;;;;;;5013164;28;20038;-78
2022/06/11 08:08:41;;;;;;;2.75;0.90;;;25.70;71.80;;;;;;5013355;28;20038;-77
2022/06/11 08:11:07;;;;;;;4.97;0.80;;;25.80;72.20;;;;;;5011235;28;20029;-77
2022/06/11 08:13:34;;;;;;;3.95;0.77;;;26.00;70.60;;;;;;5012290;28;20407;-77
2022/06/11 08:16:01;;;;;;;4.57;1.00;;;26.10;72.30;;;;;;5012608;28;20042;-78
2022/06/11 08:18:29;;;;;;;0.98;0.60;;;26.20;72.70;;;;;;5012660;28;20033;-77
2022/06/11 08:20:54;;;;;;;1.25;0.55;;;26.30;70.30;;;;;;5012275;28;20033;-80
2022/06/11 08:23:22;;;;;;;2.00;0.60;;;26.40;70.00;;;;;;5015601;28;20045;-78
2022/06/11 08:25:48;;;;;;;3.72;0.73;;;26.60;68.30;;;;;;5010382;28;20044;-78
2022/06/11 08:28:15;;;;;;;1.60;0.90;;;26.50;67.20;;;;;;5013456;28;20033;-77
2022/06/11 08:30:41;;;;;;;2.80;0.60;;;26.50;67.10;;;;;;5013260;28;20030;-77
2022/06/11 08:33:07;;;;;;;2.58;0.65;;;26.50;69.00;;;;;;5012261;28;20033;-77
2022/06/11 08:35:34;;;;;;;0.77;0.50;;;26.70;66.10;;;;;;4992787;28;20056;-77
2022/06/11 08:38:01;;;;;;;3.65;0.60;;;26.70;67.70;;;;;;4993751;28;20061;-78
2022/06/11 08:40:28;;;;;;;2.47;0.50;;;26.70;67.20;;;;;;4993171;28;20041;-77
2022/06/11 08:43:01;;;;;;;1.85;0.75;;;26.80;66.00;;;;;;5009132;28;20108;-77
2022/06/11 08:45:32;;;;;;;;;;;26.80;64.30;;;;;;5012859;28;20029;-79
2022/06/11 08:48:02;;;;;;;4.03;0.50;;;26.80;64.50;;;;;;5028008;28;20279;-77
2022/06/11 08:50:33;;;;;;;1.92;0.60;;;26.90;65.50;;;;;;5012796;28;20037;-79
2022/06/11 08:53:01;;;;;;;1.77;0.60;;;27.00;64.90;;;;;;5012689;28;20091;-77
2022/06/11 08:55:37;;;;;;;2.92;0.60;;;27.20;63.40;;;;;;5011700;28;21805;-76
2022/06/11 08:58:31;;;;;;;6.80;0.50;;;27.30;63.80;;;;;;5012969;28;20030;-77
2022/06/11 09:01:08;;;;;;;1.95;0.55;;;27.40;64.00;;;;;;5007574;28;20415;-77
2022/06/11 09:04:06;;;;;;;3.92;1.02;;;27.50;62.00;;;;;;4993434;28;20053;-79
2022/06/11 09:06:55;;;;;;;1.83;0.50;;;27.40;63.90;;;;;;5003692;28;20025;-77
2022/06/11 09:10:01;;;;;;;3.58;0.40;;;27.50;61.50;;;;;;5016936;28;20030;-78
2022/06/11 09:13:03;;;;;;;2.75;0.65;;;27.70;61.00;;;;;;5014846;28;20030;-78
2022/06/11 09:15:40;;;;;;;3.22;0.70;;;27.80;62.40;;;;;;5012249;28;20030;-81
2022/06/11 09:18:36;;;;;;;2.42;0.70;;;28.00;63.10;;;;;;5012682;28;20509;-82
2022/06/11 09:21:27;;;;;;;1.85;0.52;;;28.20;59.40;;;;;;5011310;28;20597;-82
2022/06/11 09:23:58;;;;;;;4.72;0.73;;;28.30;59.30;;;;;;5024851;28;20128;-81
2022/06/11 09:26:46;;;;;;;7.40;0.60;;;28.20;59.40;;;;;;5011485;28;20380;-82
2022/06/11 09:29:15;;;;;;;2.00;0.63;;;28.20;59.30;;;;;;5024126;28;20417;-82
2022/06/11 09:31:52;;;;;;;3.58;0.77;;;28.20;59.20;;;;;;5009776;28;20030;-82
2022/06/11 09:34:22;;;;;;;2.95;0.77;;;28.20;58.80;;;;;;4994998;28;20785;-81
2022/06/11 09:36:59;;;;;;;3.17;0.80;;;28.20;57.70;;;;;;5009310;28;20038;-81
2022/06/11 09:39:30;;;;;;;5.20;1.05;;;28.30;59.60;;;;;;5010664;28;20066;-79
2022/06/11 09:42:17;;;;;;;1.23;0.50;;;28.30;58.70;;;;;;5011401;28;20057;-79
2022/06/11 09:44:58;;;;;;;1.60;0.52;;;28.40;57.10;;;;;;5006755;28;20038;-81
2022/06/11 09:47:43;;;;;;;2.67;0.70;;;28.30;57.50;;;;;;5006545;28;20070;-81
2022/06/11 09:50:27;;;;;;;2.92;0.80;;;28.20;59.20;;;;;;5010600;28;20034;-84
2022/06/11 09:53:26;;;;;;;1.40;0.50;;;28.10;58.90;;;;;;5021363;28;20025;-85
2022/06/11 09:56:10;;;;;;;1.65;0.60;;;28.10;57.80;;;;;;5010390;28;20025;-85
2022/06/11 09:58:51;;;;;;;2.05;0.60;;;28.20;58.20;;;;;;5010146;28;20034;-81
2022/06/11 10:01:31;;;;;;;2.40;0.80;;;28.30;59.50;;;;;;5007910;28;20042;-83
2022/06/11 10:04:09;;;;;;;2.25;0.70;;;28.30;58.30;;;;;;5011244;28;20108;-83
2022/06/11 10:06:51;;;;;;;4.22;0.93;;;28.30;57.50;;;;;;5011734;28;20099;-85
2022/06/11 10:09:43;;;;;;;1.83;0.80;;;28.20;58.60;;;;;;5010667;28;20038;-83
2022/06/11 10:12:25;;;;;;;4.15;0.82;;;28.00;58.70;;;;;;5010335;28;20193;-83
2022/06/11 10:15:00;;;;;;;2.15;0.68;;;27.80;59.10;;;;;;5015983;28;20066;-84
2022/06/11 10:17:58;;;;;;;2.50;0.70;;;27.60;59.00;;;;;;5009097;28;20104;-87
2022/06/11 10:20:36;;;;;;;2.20;0.80;;;27.50;59.90;;;;;;5011078;28;20030;-85
2022/06/11 10:23:28;;;;;;;3.70;0.90;;;27.20;59.00;;;;;;5014901;28;20473;-88
2022/06/11 10:26:23;;;;;;;2.40;0.80;;;27.00;59.60;;;;;;5011585;28;20113;-84
2022/06/11 10:29:11;;;;;;;3.42;0.40;;;26.80;60.20;;;;;;5006341;28;20113;-88
2022/06/11 10:31:47;;;;;;;3.78;0.90;;;26.80;62.10;;;;;;4993966;28;20065;-86
2022/06/11 10:34:27;;;;;;;4.05;1.00;;;26.80;62.60;;;;;;5011403;28;20026;-82
2022/06/11 10:37:01;;;;;;;5.70;0.77;;;26.80;62.00;;;;;;5011207;28;20040;-85
2022/06/11 10:39:33;;;;;;;2.35;0.70;;;26.70;62.20;;;;;;5011357;28;20368;-83
2022/06/11 10:42:38;;;;;;;2.58;0.88;;;26.70;62.60;;;;;;5009412;28;20076;-83
2022/06/11 10:45:05;;;;;;;4.57;0.80;;;26.70;62.70;;;;;;4998666;28;20490;-83
2022/06/11 10:47:45;;;;;;;2.53;0.52;;;26.80;62.20;;;;;;5009513;28;20088;-83
2022/06/11 10:50:11;;;;;;;1.67;0.55;;;26.80;62.30;;;;;;5010344;28;20044;-87
2022/06/11 10:52:52;;;;;;;2.03;0.77;;;26.80;61.30;;;;;;5009400;28;20021;-83
2022/06/11 10:55:41;;;;;;;2.70;0.55;;;26.80;60.90;;;;;;5007151;28;20475;-83
2022/06/11 10:58:32;;;;;;;2.67;0.60;;;26.80;61.50;;;;;;5001394;28;20046;-82
2022/06/11 11:01:06;;;;;;;1.48;0.80;;;26.80;62.20;;;;;;5007335;28;20490;-83
2022/06/11 11:03:39;;;;;;;1.60;0.50;;;26.80;61.90;;;;;;5009021;28;20022;-82
2022/06/11 11:06:09;;;;;;;2.30;0.52;;;26.90;62.50;;;;;;5006914;28;20037;-87
2022/06/11 11:08:49;;;;;;;0.93;0.55;;;26.90;62.20;;;;;;5004975;28;20064;-83
2022/06/11 11:11:15;;;;;;;2.10;0.77;;;26.90;61.40;;;;;;5021775;28;20026;-82
2022/06/11 11:13:44;;;;;;;3.05;0.90;;;26.90;61.40;;;;;;4998099;28;20125;-82
2022/06/11 11:16:15;;;;;;;2.25;0.95;;;26.80;60.00;;;;;;5021529;28;20045;-81
2022/06/11 11:18:59;;;;;;;3.10;1.00;;;26.70;60.40;;;;;;5023720;28;20029;-82
2022/06/11 11:21:29;;;;;;;4.25;1.15;;;26.60;60.90;;;;;;5008152;28;20483;-82
2022/06/11 11:24:05;;;;;;;2.85;0.63;;;26.60;61.30;;;;;;5016363;28;20026;-82
2022/06/11 11:26:45;;;;;;;0.85;0.40;;;26.60;60.10;;;;;;5017867;28;20121;-81
2022/06/11 11:29:30;;;;;;;1.77;0.60;;;26.90;60.20;;;;;;5032558;28;20030;-84
2022/06/11 11:32:06;;;;;;;4.03;0.77;;;27.10;59.50;;;;;;5008033;28;20383;-83
2022/06/11 11:34:41;;;;;;;2.33;0.60;;;27.30;62.00;;;;;;5022820;28;20025;-83
2022/06/11 11:37:16;;;;;;;1.95;0.70;;;27.70;63.00;;;;;;5016682;28;20042;-84
2022/06/11 11:39:59;;;;;;;4.80;0.50;;;28.10;61.30;;;;;;5014540;28;20068;-83
2022/06/11 11:42:39;;;;;;;0.85;0.50;;;28.60;58.80;;;;;;5015025;28;20045;-82
2022/06/11 11:45:42;;;;;;;2.00;0.73;;;28.90;58.70;;;;;;5019930;28;20528;-81
2022/06/11 11:48:15;;;;;;;2.83;0.88;;;29.30;57.90;;;;;;4999120;28;20050;-84
2022/06/11 11:50:42;;;;;;;1.75;0.60;;;29.40;56.60;;;;;;5016569;28;20029;-82
2022/06/11 11:53:25;;;;;;;1.35;0.65;;;29.50;57.20;;;;;;5022867;28;20037;-84
2022/06/11 11:56:03;;;;;;;3.60;0.75;;;29.60;55.60;;;;;;5024315;28;20105;-82
2022/06/11 11:58:28;;;;;;;5.65;0.68;;;29.50;57.40;;;;;;5019043;28;20036;-82
2022/06/11 12:00:59;;;;;;;3.03;0.70;;;29.60;57.40;;;;;;5032528;28;20394;-83
2022/06/11 12:03:37;;;;;;;1.58;0.60;;;29.60;55.40;;;;;;5017834;28;20091;-85
2022/06/11 12:06:04;;;;;;;1.85;0.70;;;29.60;57.50;;;;;;5012724;28;20548;-82
2022/06/11 12:08:35;;;;;;;2.65;0.75;;;29.80;58.60;;;;;;5031820;28;20203;-82
2022/06/11 12:11:01;;;;;;;2.80;0.70;;;30.00;57.70;;;;;;5016682;28;20526;-82
2022/06/11 12:13:44;;;;;;;1.80;0.60;;;30.30;56.00;;;;;;5016985;28;20030;-82
2022/06/11 12:16:36;;;;;;;1.88;0.43;;;30.60;55.40;;;;;;5015709;28;20068;-82
2022/06/11 12:19:09;;;;;;;0.93;0.50;;;30.70;55.70;;;;;;5019407;28;20045;-83
2022/06/11 12:21:39;;;;;;;1.52;0.50;;;30.80;55.50;;;;;;5018657;28;20029;-84
2022/06/11 12:24:08;;;;;;;1.58;0.52;;;31.00;53.90;;;;;;5017589;28;20033;-81
2022/06/11 12:26:51;;;;;;;1.98;0.47;;;31.00;56.70;;;;;;5044290;28;20069;-83
2022/06/11 12:29:39;;;;;;;2.08;0.50;;;31.10;54.20;;;;;;5015254;28;20038;-82
2022/06/11 12:32:32;;;;;;;1.92;0.70;;;31.30;54.10;;;;;;5016748;28;20034;-81
2022/06/11 12:35:02;;;;;;;1.77;0.52;;;31.40;52.80;;;;;;5012229;28;20517;-85
2022/06/11 12:37:50;;;;;;;1.38;0.47;;;31.40;52.20;;;;;;5022848;28;20522;-85
2022/06/11 12:40:52;;;;;;;2.38;0.60;;;31.30;52.80;;;;;;5012028;28;20178;-85
2022/06/11 12:44:00;;;;;;;2.47;0.40;;;31.20;53.60;;;;;;5013471;28;20065;-82
2022/06/11 12:46:44;;;;;;;1.42;0.50;;;31.00;53.40;;;;;;5010314;28;20041;-81
2022/06/11 12:49:18;;;;;;;3.15;0.82;;;30.90;53.30;;;;;;5012906;28;20038;-85
2022/06/11 12:51:56;;;;;;;1.73;0.60;;;30.90;52.80;;;;;;5012946;28;20120;-81
2022/06/11 12:54:45;;;;;;;2.22;0.77;;;30.90;53.80;;;;;;5012638;28;20155;-82
2022/06/11 12:57:44;;;;;;;2.00;0.50;;;30.80;53.60;;;;;;5012414;28;20124;-82
2022/06/11 13:00:40;;;;;;;1.55;0.40;;;30.50;52.60;;;;;;5024072;28;20114;-81
2022/06/11 13:03:48;;;;;;;1.95;0.90;;;30.10;52.80;;;;;;5011328;28;20030;-82
2022/06/11 13:06:39;;;;;;;2.05;0.63;;;29.80;53.50;;;;;;5024898;28;20044;-80
2022/06/11 13:09:29;;;;;;;1.98;0.63;;;29.70;54.40;;;;;;5012584;28;20025;-85
2022/06/11 13:12:22;;;;;;;0.90;0.40;;;29.50;53.60;;;;;;5022584;28;20029;-86
2022/06/11 13:15:16;;;;;;;1.58;0.90;;;29.20;55.20;;;;;;5012296;28;20391;-84
2022/06/11 13:18:00;;;;;;;1.63;0.50;;;29.00;55.60;;;;;;5012073;28;20034;-83
2022/06/11 13:20:34;;;;;;;3.25;0.77;;;28.90;56.30;;;;;;5007556;28;20033;-87